Flight Briefing for CPX793

Departure Arrival
Kingsford Smith International Airport (YSSY)
Click to view FAA NOTAMS
Auckland International Airport (NZAA)
Click to view FAA NOTAMS
Departure Time Arrival Time
N/A N/A
Aircraft Distance
MD-11SF 1167nm
Departure METAR Arrival METAR
YSSY 180530Z 04021KT CAVOK 30/17 Q1004 NOSIG NZAA 180530Z AUTO 22012KT 9999 NCD 22/14 Q1014 NOSIG
Suggested Route
TESAT L521 LUNBI AA


View recent IFR Routes data
Notes



Charts and Procedures

Charts for YSSY
No chart available
Charts for NZAA
No chart available

Ventusky Weather